createdAt,value
2018-11-02T00:01:18.270Z,20.00
2018-11-02T00:03:50.333Z,19.30
2018-11-02T00:06:21.507Z,20.33
2018-11-02T00:09:08.250Z,18.57
2018-11-02T00:11:39.699Z,18.63
2018-11-02T00:14:11.359Z,18.70
2018-11-02T00:16:44.383Z,18.67
2018-11-02T00:19:14.123Z,18.00
2018-11-02T00:21:45.824Z,17.80
2018-11-02T00:24:17.453Z,19.27
2018-11-02T00:26:48.852Z,19.03
2018-11-02T00:29:20.266Z,18.37
2018-11-02T00:31:53.442Z,17.87
2018-11-02T00:34:24.953Z,17.90
2018-11-02T00:36:56.028Z,17.40
2018-11-02T00:39:27.630Z,16.23
2018-11-02T00:42:00.037Z,16.07
2018-11-02T00:44:31.137Z,15.97
2018-11-02T00:47:02.215Z,14.47
2018-11-02T00:49:33.263Z,14.33
2018-11-02T00:52:04.800Z,13.77
2018-11-02T00:54:36.360Z,13.07
2018-11-02T00:57:07.578Z,13.60
2018-11-02T00:59:38.979Z,13.63
2018-11-02T01:02:10.458Z,12.60
2018-11-02T01:04:42.319Z,13.10
2018-11-02T01:07:13.325Z,12.20
2018-11-02T01:09:45.394Z,12.13
2018-11-02T01:12:16.427Z,12.57
2018-11-02T01:14:48.054Z,11.63
2018-11-02T01:17:19.313Z,12.00
2018-11-02T01:19:50.308Z,11.20
2018-11-02T01:22:21.874Z,10.63
2018-11-02T01:24:53.069Z,11.07
2018-11-02T01:27:24.068Z,11.07
2018-11-02T01:29:55.182Z,11.73
2018-11-02T01:32:26.198Z,10.30
2018-11-02T01:34:57.801Z,10.70
2018-11-02T01:37:29.694Z,10.53
2018-11-02T01:40:01.974Z,10.43
2018-11-02T01:42:33.440Z,10.27
2018-11-02T01:45:04.493Z,10.23
2018-11-02T01:47:35.859Z,10.80
2018-11-02T01:50:08.179Z,10.53
2018-11-02T01:52:40.114Z,10.80
2018-11-02T01:55:11.215Z,9.60
2018-11-02T01:57:43.232Z,10.33
2018-11-02T02:00:14.292Z,10.43
2018-11-02T02:02:46.339Z,9.67
2018-11-02T02:05:17.398Z,10.17
2018-11-02T02:07:48.436Z,10.10
2018-11-02T02:10:21.648Z,9.97
2018-11-02T02:12:53.024Z,9.33
2018-11-02T02:15:24.051Z,9.47
2018-11-02T02:17:56.027Z,10.10
2018-11-02T02:20:28.205Z,9.83
2018-11-02T02:23:00.578Z,9.77
2018-11-02T02:25:33.423Z,9.17
2018-11-02T02:28:07.244Z,10.50
2018-11-02T02:30:38.643Z,9.80
2018-11-02T02:33:09.665Z,10.23
2018-11-02T02:35:41.718Z,10.17
2018-11-02T02:38:12.811Z,9.23
2018-11-02T02:40:45.199Z,9.07
2018-11-02T02:43:17.551Z,9.80
2018-11-02T02:45:50.026Z,9.70
2018-11-02T02:48:22.166Z,9.77
2018-11-02T02:50:54.384Z,8.83
2018-11-02T02:53:27.215Z,9.50
2018-11-02T02:55:58.993Z,9.77
2018-11-02T02:58:32.187Z,10.17
2018-11-02T03:01:03.902Z,9.70
2018-11-02T03:03:35.935Z,9.13
2018-11-02T03:06:07.881Z,9.43
2018-11-02T03:08:39.331Z,10.50
2018-11-02T03:11:11.869Z,9.60
2018-11-02T03:13:44.436Z,10.13
2018-11-02T03:16:15.931Z,9.10
2018-11-02T03:18:47.817Z,10.07
2018-11-02T03:21:18.686Z,9.50
2018-11-02T03:23:51.823Z,10.10
2018-11-02T03:30:30.098Z,9.77
2018-11-02T03:33:01.969Z,9.87
2018-11-02T03:35:33.755Z,8.90
2018-11-02T03:38:05.137Z,10.07
2018-11-02T03:40:37.167Z,9.80
2018-11-02T03:43:09.584Z,10.70
2018-11-02T03:45:42.202Z,10.73
2018-11-02T03:48:15.378Z,10.43
2018-11-02T03:50:47.805Z,11.30
2018-11-02T03:53:19.875Z,10.60
2018-11-02T03:55:51.297Z,10.30
2018-11-02T03:58:23.330Z,10.80
2018-11-02T04:00:57.118Z,11.20
2018-11-02T04:03:28.795Z,11.07
2018-11-02T04:05:59.814Z,10.73
2018-11-02T04:08:30.855Z,10.80
2018-11-02T04:11:04.437Z,10.50
2018-11-02T04:13:37.448Z,11.03
2018-11-02T04:16:09.471Z,11.43
2018-11-02T04:18:40.582Z,11.30
2018-11-02T04:21:11.632Z,10.93
2018-11-02T04:23:44.343Z,11.07
2018-11-02T04:26:15.380Z,10.87
2018-11-02T04:28:46.511Z,11.90
2018-11-02T04:31:17.895Z,12.07
2018-11-02T04:33:49.933Z,11.57
2018-11-02T04:36:20.983Z,11.70
2018-11-02T04:38:52.458Z,12.47
2018-11-02T04:41:24.195Z,12.53
2018-11-02T04:43:55.465Z,12.80
2018-11-02T04:46:27.542Z,12.50
2018-11-02T04:48:58.960Z,12.20
2018-11-02T04:51:31.264Z,11.80
2018-11-02T04:54:02.657Z,11.63
2018-11-02T04:56:34.134Z,11.57
2018-11-02T04:59:06.068Z,11.80
2018-11-02T05:01:37.185Z,11.10
2018-11-02T05:04:08.532Z,11.50
2018-11-02T05:06:41.451Z,11.53
2018-11-02T05:09:13.202Z,11.40
2018-11-02T05:11:44.255Z,11.60
2018-11-02T05:14:15.662Z,12.13
2018-11-02T05:16:47.879Z,11.07
2018-11-02T05:19:20.010Z,11.70
2018-11-02T05:21:51.463Z,11.20
2018-11-02T05:24:23.784Z,11.10
2018-11-02T05:26:56.163Z,10.77
2018-11-02T05:29:27.344Z,12.03
2018-11-02T05:31:59.179Z,10.57
2018-11-02T05:34:31.086Z,12.30
2018-11-02T05:37:02.900Z,11.17
2018-11-02T05:39:34.827Z,11.53
2018-11-02T05:42:05.934Z,10.63
2018-11-02T05:44:37.745Z,10.90
2018-11-02T05:47:10.193Z,11.67
2018-11-02T05:49:42.188Z,12.00
2018-11-02T05:52:13.333Z,10.93
2018-11-02T05:54:45.709Z,12.27
2018-11-02T05:57:17.874Z,11.60
2018-11-02T05:59:50.400Z,12.03
2018-11-02T06:02:21.834Z,12.40
2018-11-02T06:04:53.843Z,11.27
2018-11-02T06:07:26.693Z,11.23
2018-11-02T06:09:59.082Z,11.67
2018-11-02T06:12:30.527Z,11.57
2018-11-02T06:15:01.852Z,11.27
2018-11-02T06:17:37.591Z,11.30
2018-11-02T06:20:09.525Z,11.53
2018-11-02T06:22:41.561Z,10.93
2018-11-02T06:25:14.303Z,11.10
2018-11-02T06:27:45.719Z,10.97
2018-11-02T06:30:17.247Z,11.87
2018-11-02T06:32:48.715Z,10.97
2018-11-02T06:35:20.137Z,10.50
2018-11-02T06:37:52.604Z,10.70
2018-11-02T06:40:25.273Z,11.13
2018-11-02T06:42:57.032Z,11.50
2018-11-02T06:45:28.157Z,10.43
2018-11-02T06:48:00.188Z,10.50
2018-11-02T06:50:32.067Z,10.67
2018-11-02T06:53:04.448Z,11.10
2018-11-02T06:55:36.433Z,11.00
2018-11-02T06:58:07.708Z,10.90
2018-11-02T07:00:38.866Z,10.80
2018-11-02T07:03:10.756Z,11.17
2018-11-02T07:05:42.606Z,12.20
2018-11-02T07:08:14.249Z,12.77
2018-11-02T07:10:46.114Z,12.93
2018-11-02T07:13:17.227Z,13.73
2018-11-02T07:15:49.823Z,12.57
2018-11-02T07:18:21.265Z,13.70
2018-11-02T07:20:52.671Z,14.37
2018-11-02T07:23:25.503Z,14.50
2018-11-02T07:25:57.391Z,14.80
2018-11-02T07:28:30.126Z,15.40
2018-11-02T07:31:01.187Z,15.57
2018-11-02T07:33:33.938Z,15.37
2018-11-02T07:36:05.765Z,14.67
2018-11-02T07:38:37.209Z,14.63
2018-11-02T07:41:08.330Z,15.13
2018-11-02T07:43:39.496Z,14.10
2018-11-02T07:46:11.427Z,15.73
2018-11-02T07:48:43.657Z,14.97
2018-11-02T07:51:14.704Z,15.33
2018-11-02T07:53:46.305Z,14.77
2018-11-02T07:56:19.548Z,13.63
2018-11-02T07:58:52.196Z,13.13
2018-11-02T08:01:24.583Z,13.40
2018-11-02T08:03:55.942Z,13.70
2018-11-02T08:06:27.587Z,13.53
2018-11-02T08:08:58.624Z,12.97
2018-11-02T08:11:29.886Z,13.23
2018-11-02T08:14:02.451Z,13.67
2018-11-02T08:16:34.357Z,13.80
2018-11-02T08:19:06.051Z,13.10
2018-11-02T08:21:37.566Z,13.50
2018-11-02T08:24:09.183Z,13.63
2018-11-02T08:26:40.587Z,13.07
2018-11-02T08:29:11.622Z,13.53
2018-11-02T08:31:43.088Z,13.27
2018-11-02T08:34:14.085Z,13.60
2018-11-02T08:36:45.591Z,13.07
2018-11-02T08:39:16.646Z,12.90
2018-11-02T08:41:48.650Z,11.87
2018-11-02T08:44:19.662Z,11.47
2018-11-02T08:46:52.339Z,10.30
2018-11-02T08:49:23.891Z,10.43
2018-11-02T08:51:54.932Z,10.03
2018-11-02T08:54:25.936Z,8.73
2018-11-02T08:57:00.425Z,8.37
2018-11-02T08:59:32.095Z,7.10
2018-11-02T09:02:03.351Z,7.03
2018-11-02T09:04:34.395Z,6.57
2018-11-02T09:07:05.473Z,6.27
2018-11-02T09:09:36.972Z,4.50
2018-11-02T09:12:08.045Z,4.57
2018-11-02T09:14:39.023Z,4.17
2018-11-02T09:17:10.059Z,4.30
2018-11-02T09:19:41.518Z,4.10
2018-11-02T09:22:13.124Z,2.97
2018-11-02T09:24:44.520Z,2.83
2018-11-02T09:27:16.567Z,2.77
2018-11-02T09:29:47.712Z,2.50
2018-11-02T09:32:19.070Z,2.40
2018-11-02T09:34:50.204Z,2.57
2018-11-02T09:37:21.262Z,2.50
2018-11-02T09:39:52.752Z,2.90
2018-11-02T09:42:23.835Z,2.90
2018-11-02T09:44:55.697Z,3.30
2018-11-02T09:47:27.730Z,3.00
2018-11-02T09:49:58.713Z,3.93
2018-11-02T09:52:29.757Z,3.27
2018-11-02T09:55:01.156Z,3.00
2018-11-02T09:57:32.687Z,3.43
2018-11-02T10:00:03.643Z,3.50
2018-11-02T10:02:35.187Z,3.67
2018-11-02T10:05:07.031Z,3.93
2018-11-02T10:07:39.397Z,3.70
2018-11-02T10:10:11.641Z,3.50
2018-11-02T10:12:42.640Z,3.97
2018-11-02T10:15:15.677Z,3.93
2018-11-02T10:17:47.500Z,3.37
2018-11-02T10:20:18.526Z,3.73
2018-11-02T10:22:49.522Z,3.60
2018-11-02T10:25:20.577Z,3.40
2018-11-02T10:27:52.232Z,3.27
2018-11-02T10:30:23.274Z,3.37
2018-11-02T10:32:56.078Z,3.10
2018-11-02T10:35:27.739Z,3.40
2018-11-02T10:38:00.198Z,3.73
2018-11-02T10:40:34.253Z,3.40
2018-11-02T10:43:08.200Z,3.50
2018-11-02T10:45:41.892Z,3.20
2018-11-02T10:48:13.711Z,3.03
2018-11-02T10:50:44.741Z,3.00
2018-11-02T10:53:15.937Z,3.43
2018-11-02T10:55:46.993Z,2.80
2018-11-02T10:58:17.984Z,3.43
2018-11-02T11:01:06.888Z,2.90
2018-11-02T11:03:37.632Z,2.90
2018-11-02T11:06:09.413Z,2.90
2018-11-02T11:08:40.573Z,2.13
2018-11-02T11:11:11.579Z,2.33
2018-11-02T11:13:42.940Z,2.10
2018-11-02T11:16:14.184Z,1.97
2018-11-02T11:18:45.237Z,1.93
2018-11-02T11:21:16.372Z,2.03
2018-11-02T11:23:48.206Z,2.57
2018-11-02T11:26:19.788Z,2.00
2018-11-02T11:28:51.675Z,1.80
2018-11-02T11:31:23.491Z,2.10
2018-11-02T11:33:55.306Z,2.10
2018-11-02T11:36:26.938Z,2.53
2018-11-02T11:38:58.302Z,1.90
2018-11-02T11:41:29.801Z,2.37
2018-11-02T11:44:00.875Z,2.00
2018-11-02T11:46:32.321Z,2.10
2018-11-02T11:49:03.640Z,2.03
2018-11-02T11:51:35.045Z,2.03
2018-11-02T11:54:06.363Z,1.93
2018-11-02T11:56:38.784Z,1.97
2018-11-02T11:59:09.818Z,1.70
2018-11-02T12:01:40.819Z,2.50
2018-11-02T12:04:12.893Z,2.17
2018-11-02T12:06:44.291Z,1.93
2018-11-02T12:09:15.377Z,1.90
2018-11-02T12:11:47.024Z,1.93
2018-11-02T12:14:18.883Z,2.20
2018-11-02T12:16:49.926Z,2.27
2018-11-02T12:19:20.937Z,2.30
2018-11-02T12:21:52.861Z,2.73
2018-11-02T12:24:24.223Z,2.57
2018-11-02T12:26:55.274Z,2.70
2018-11-02T12:29:26.333Z,2.60
2018-11-02T12:31:57.411Z,2.43
2018-11-02T12:34:28.919Z,2.83
2018-11-02T12:37:01.845Z,2.30
2018-11-02T12:39:30.962Z,2.40
2018-11-02T12:42:01.967Z,2.73
2018-11-02T12:44:33.004Z,2.57
2018-11-02T12:47:04.038Z,2.80
2018-11-02T12:49:36.109Z,2.90
2018-11-02T12:52:06.956Z,3.13
2018-11-02T12:54:38.376Z,3.07
2018-11-02T12:57:11.162Z,3.03
2018-11-02T12:59:42.708Z,2.87
2018-11-02T13:02:13.713Z,3.57
2018-11-02T13:04:46.101Z,3.70
2018-11-02T13:07:17.580Z,3.30
2018-11-02T13:09:48.925Z,3.40
2018-11-02T13:12:21.260Z,3.03
2018-11-02T13:14:52.293Z,3.60
2018-11-02T13:17:24.378Z,3.43
2018-11-02T13:19:56.142Z,3.23
2018-11-02T13:22:27.504Z,3.00
2018-11-02T13:24:59.144Z,3.07
2018-11-02T13:27:30.240Z,3.30
2018-11-02T13:30:02.172Z,3.33
2018-11-02T13:32:34.047Z,3.10
2018-11-02T13:35:05.175Z,3.73
2018-11-02T13:37:36.955Z,2.63
2018-11-02T13:40:09.884Z,2.80
2018-11-02T13:42:41.498Z,3.13
2018-11-02T13:45:14.144Z,2.47
2018-11-02T13:47:45.711Z,2.73
2018-11-02T13:50:16.839Z,2.50
2018-11-02T13:52:48.268Z,2.90
2018-11-02T13:55:19.698Z,2.27
2018-11-02T13:57:52.802Z,2.20
2018-11-02T14:00:27.210Z,3.37
2018-11-02T14:02:58.372Z,3.23
2018-11-02T14:05:31.152Z,2.83
2018-11-02T14:08:02.671Z,2.40
2018-11-02T14:10:34.561Z,2.63
2018-11-02T14:13:05.752Z,2.47
2018-11-02T14:15:37.349Z,3.10
2018-11-02T14:18:08.534Z,2.40
2018-11-02T14:20:39.556Z,2.50
2018-11-02T14:23:11.441Z,2.70
2018-11-02T14:25:43.452Z,2.63
2018-11-02T14:28:15.879Z,3.37
2018-11-02T14:30:47.348Z,2.57
2018-11-02T14:33:19.221Z,3.00
2018-11-02T14:35:51.106Z,2.93
2018-11-02T14:38:22.613Z,2.90
2018-11-02T14:40:54.242Z,2.30
2018-11-02T14:43:25.087Z,2.63
2018-11-02T14:45:56.092Z,2.63
2018-11-02T14:48:27.560Z,2.50
2018-11-02T14:50:58.548Z,2.90
2018-11-02T14:53:30.187Z,2.57
2018-11-02T14:56:01.936Z,2.87
2018-11-02T14:58:33.017Z,2.43
2018-11-02T15:01:04.997Z,2.53
2018-11-02T15:03:36.460Z,2.13
2018-11-02T15:06:08.809Z,2.70
2018-11-02T15:08:40.323Z,2.80
2018-11-02T15:11:11.823Z,2.43
2018-11-02T15:13:44.590Z,2.20
2018-11-02T15:16:16.662Z,2.23
2018-11-02T15:18:47.906Z,3.07
2018-11-02T15:21:19.618Z,2.70
2018-11-02T15:23:51.089Z,2.40
2018-11-02T15:26:22.543Z,2.20
2018-11-02T15:28:53.817Z,2.40
2018-11-02T15:31:25.762Z,2.43
2018-11-02T15:33:56.852Z,2.70
2018-11-02T15:36:27.916Z,2.37
2018-11-02T15:39:00.039Z,2.50
2018-11-02T15:41:31.024Z,2.10
2018-11-02T15:44:02.135Z,2.20
2018-11-02T15:46:33.955Z,2.80
2018-11-02T15:49:05.876Z,2.17
2018-11-02T15:51:37.002Z,2.17
2018-11-02T15:54:08.100Z,3.07
2018-11-02T15:56:39.291Z,2.73
2018-11-02T15:59:10.304Z,2.90
2018-11-02T16:01:41.735Z,3.10
2018-11-02T16:04:12.963Z,3.20
2018-11-02T16:06:44.449Z,3.00
2018-11-02T16:09:16.712Z,2.70
2018-11-02T16:11:53.555Z,2.70
2018-11-02T16:14:25.609Z,2.37
2018-11-02T16:16:57.032Z,2.40
2018-11-02T16:19:28.130Z,2.10
2018-11-02T16:21:59.624Z,2.00
2018-11-02T16:24:31.280Z,2.40
2018-11-02T16:27:02.658Z,2.50
2018-11-02T16:29:34.055Z,3.20
2018-11-02T16:32:05.040Z,2.47
2018-11-02T16:34:36.176Z,2.80
2018-11-02T16:37:07.362Z,2.70
2018-11-02T16:39:39.319Z,4.03
2018-11-02T16:42:12.281Z,4.00
2018-11-02T16:44:44.403Z,2.80
2018-11-02T16:47:16.274Z,2.80
2018-11-02T16:49:47.680Z,2.57
2018-11-02T16:52:20.672Z,2.50
2018-11-02T16:54:52.750Z,2.60
2018-11-02T16:57:24.148Z,2.47
2018-11-02T16:59:55.562Z,2.50
2018-11-02T17:02:27.682Z,3.00
2018-11-02T17:05:00.917Z,3.00
2018-11-02T17:07:32.343Z,2.70
2018-11-02T17:10:03.413Z,3.47
2018-11-02T17:12:34.977Z,3.10
2018-11-02T17:15:06.371Z,2.90
2018-11-02T17:17:37.793Z,3.03
2018-11-02T17:20:11.219Z,3.50
2018-11-02T17:22:43.692Z,3.97
2018-11-02T17:25:15.240Z,3.90
2018-11-02T17:27:46.287Z,4.03
2018-11-02T17:30:18.965Z,3.40
2018-11-02T17:32:50.556Z,3.40
2018-11-02T17:35:21.574Z,3.40
2018-11-02T17:37:54.250Z,3.50
2018-11-02T17:40:25.549Z,3.53
2018-11-02T17:42:56.644Z,3.37
2018-11-02T17:45:28.118Z,3.40
2018-11-02T17:47:59.697Z,3.63
2018-11-02T17:50:30.772Z,3.60
2018-11-02T17:53:03.016Z,3.67
2018-11-02T17:55:34.057Z,3.80
2018-11-02T17:58:05.077Z,4.10
2018-11-02T18:00:36.082Z,4.53
2018-11-02T18:03:07.477Z,4.87
2018-11-02T18:05:38.919Z,5.37
2018-11-02T18:08:10.015Z,6.07
2018-11-02T18:10:41.800Z,6.93
2018-11-02T18:13:13.947Z,6.40
2018-11-02T18:15:47.261Z,5.43
2018-11-02T18:18:18.281Z,5.80
2018-11-02T18:20:50.232Z,9.30
2018-11-02T18:23:21.736Z,7.40
2018-11-02T18:25:52.754Z,7.03
2018-11-02T18:28:23.775Z,7.13
2018-11-02T18:30:54.826Z,6.23
2018-11-02T18:33:26.839Z,6.70
2018-11-02T18:35:57.835Z,6.50
2018-11-02T18:38:29.795Z,6.17
2018-11-02T18:41:01.357Z,6.80
2018-11-02T18:43:34.064Z,7.20
2018-11-02T18:46:05.805Z,6.43
2018-11-02T18:48:36.861Z,6.77
2018-11-02T18:51:07.967Z,5.93
2018-11-02T18:53:40.540Z,5.33
2018-11-02T18:56:12.101Z,6.37
2018-11-02T18:58:43.533Z,6.00
2018-11-02T19:01:14.668Z,6.47
2018-11-02T19:03:45.743Z,6.47
2018-11-02T19:06:17.611Z,6.10
2018-11-02T19:08:49.205Z,5.80
2018-11-02T19:11:20.383Z,6.20
2018-11-02T19:13:52.639Z,6.83
2018-11-02T19:16:25.343Z,6.67
2018-11-02T19:18:57.703Z,6.47
2018-11-02T19:21:28.724Z,6.13
2018-11-02T19:24:00.237Z,6.80
2018-11-02T19:26:32.817Z,6.33
2018-11-02T19:29:03.864Z,6.70
2018-11-02T19:31:36.917Z,6.03
2018-11-02T19:34:09.233Z,6.70
2018-11-02T19:36:40.744Z,6.10
2018-11-02T19:39:13.504Z,6.37
2018-11-02T19:41:44.634Z,6.30
2018-11-02T19:44:17.476Z,6.30
2018-11-02T19:46:49.392Z,6.77
2018-11-02T19:49:20.424Z,7.70
2018-11-02T19:51:52.312Z,7.00
2018-11-02T19:54:24.302Z,7.40
2018-11-02T19:56:55.991Z,7.70
2018-11-02T19:59:28.744Z,8.90
2018-11-02T20:02:00.396Z,8.00
2018-11-02T20:04:31.811Z,8.10
2018-11-02T20:07:02.811Z,7.53
2018-11-02T20:09:35.274Z,7.53
2018-11-02T20:12:06.713Z,8.10
2018-11-02T20:14:37.705Z,8.13
2018-11-02T20:17:09.728Z,9.33
2018-11-02T20:19:42.548Z,13.20
2018-11-02T20:22:14.497Z,11.20
2018-11-02T20:24:45.527Z,10.77
2018-11-02T20:27:18.784Z,9.87
2018-11-02T20:29:49.884Z,8.90
2018-11-02T20:32:20.943Z,8.77
2018-11-02T20:34:52.025Z,8.97
2018-11-02T20:37:23.032Z,9.80
2018-11-02T20:39:55.456Z,8.83
2018-11-02T20:42:26.496Z,9.13
2018-11-02T20:44:58.888Z,10.37
2018-11-02T20:47:47.578Z,9.73
2018-11-02T20:50:20.845Z,9.93
2018-11-02T20:52:52.310Z,9.67
2018-11-02T20:55:23.391Z,9.67
2018-11-02T20:57:55.202Z,8.93
2018-11-02T21:00:26.597Z,9.47
2018-11-02T21:02:57.747Z,9.63
2018-11-02T21:05:30.203Z,9.17
2018-11-02T21:08:02.470Z,9.60
2018-11-02T21:10:34.210Z,9.30
2018-11-02T21:13:06.194Z,10.40
2018-11-02T21:15:37.662Z,9.70
2018-11-02T21:18:09.737Z,8.93
2018-11-02T21:20:40.896Z,9.03
2018-11-02T21:23:12.914Z,9.00
2018-11-02T21:25:45.737Z,9.13
2018-11-02T21:28:16.763Z,9.57
2018-11-02T21:30:49.168Z,8.97
2018-11-02T21:33:20.346Z,10.10
2018-11-02T21:35:52.273Z,9.10
2018-11-02T21:38:24.438Z,9.13
2018-11-02T21:40:55.824Z,9.43
2018-11-02T21:43:26.925Z,9.03
2018-11-02T21:45:58.010Z,8.67
2018-11-02T21:48:30.123Z,9.10
2018-11-02T21:51:01.296Z,9.57
2018-11-02T21:53:33.663Z,9.37
2018-11-02T21:56:05.110Z,9.93
2018-11-02T21:58:36.355Z,9.73
2018-11-02T22:01:08.215Z,10.43
2018-11-02T22:03:40.532Z,10.37
2018-11-02T22:06:12.023Z,11.70
2018-11-02T22:08:43.131Z,10.23
2018-11-02T22:11:16.079Z,10.70
2018-11-02T22:13:47.311Z,10.10
2018-11-02T22:16:18.385Z,9.67
2018-11-02T22:18:50.581Z,9.63
2018-11-02T22:21:21.576Z,9.73
2018-11-02T22:23:52.746Z,10.03
2018-11-02T22:26:23.817Z,9.80
2018-11-02T22:28:55.724Z,9.33
2018-11-02T22:31:26.764Z,9.53
2018-11-02T22:33:57.748Z,9.60
2018-11-02T22:36:28.885Z,10.37
2018-11-02T22:39:00.253Z,10.60
2018-11-02T22:41:31.508Z,9.93
2018-11-02T22:44:03.798Z,9.17
2018-11-02T22:46:35.940Z,9.60
2018-11-02T22:49:07.448Z,9.63
2018-11-02T22:51:39.088Z,9.17
2018-11-02T22:54:10.259Z,9.47
2018-11-02T22:56:41.604Z,9.53
2018-11-02T22:59:13.480Z,9.47
2018-11-02T23:01:44.760Z,9.33
2018-11-02T23:04:16.668Z,9.20
2018-11-02T23:06:48.571Z,9.30
2018-11-02T23:09:20.541Z,10.00
2018-11-02T23:11:51.753Z,10.10
2018-11-02T23:14:23.190Z,10.57
2018-11-02T23:16:56.022Z,10.30
2018-11-02T23:19:27.642Z,9.57
2018-11-02T23:21:59.501Z,9.20
2018-11-02T23:24:30.678Z,10.27
2018-11-02T23:27:01.711Z,10.23
2018-11-02T23:29:33.948Z,10.30
2018-11-02T23:32:05.906Z,10.33
2018-11-02T23:34:37.041Z,10.73
2018-11-02T23:37:08.105Z,10.57
2018-11-02T23:39:39.675Z,11.00
2018-11-02T23:42:12.073Z,10.83
2018-11-02T23:44:43.518Z,9.83
2018-11-02T23:47:15.680Z,9.50
2018-11-02T23:49:47.523Z,9.73
2018-11-02T23:52:19.151Z,9.67
2018-11-02T23:54:50.624Z,10.33
2018-11-02T23:57:23.124Z,10.50
2018-11-02T23:59:55.298Z,11.20
